Time;durP1;ratioP1;P1;durP2;ratioP2;P2;SDS_P1;SDS_P2;PMS_P1;PMS_P2;Temp;Humidity;BMP_temperature;BMP_pressure;BME280_temperature;BME280_humidity;BME280_pressure;Samples;Min_cycle;Max_cycle;Signal;HPM_P1;HPM_P2
2022/06/21 00:01:13;;;;;;;9.65;2.63;;;13.40;99.90;;;;;;5104153;28;20067;-87
2022/06/21 00:03:39;;;;;;;8.50;2.92;;;13.40;99.90;;;;;;5079952;28;20051;-87
2022/06/21 00:06:05;;;;;;;13.05;3.35;;;13.40;99.90;;;;;;5112110;28;20040;-87
2022/06/21 00:08:33;;;;;;;5.70;2.72;;;13.30;99.90;;;;;;5095684;28;20050;-87
2022/06/21 00:10:59;;;;;;;5.72;3.17;;;13.30;99.90;;;;;;5088466;28;21686;-86
2022/06/21 00:13:28;;;;;;;7.82;3.08;;;13.40;99.90;;;;;;5107376;28;20115;-87
2022/06/21 00:16:07;;;;;;;8.20;3.10;;;13.30;99.90;;;;;;5104728;28;20070;-87
2022/06/21 00:18:35;;;;;;;10.48;3.33;;;13.30;99.90;;;;;;5086510;28;20123;-87
2022/06/21 00:21:01;;;;;;;6.70;3.28;;;13.20;99.90;;;;;;5095538;28;20092;-87
2022/06/21 00:23:30;;;;;;;5.15;3.20;;;13.20;99.90;;;;;;5095076;28;20048;-86
2022/06/21 00:25:56;;;;;;;6.35;3.00;;;13.20;99.90;;;;;;5104606;28;20078;-87
2022/06/21 00:28:23;;;;;;;7.22;3.05;;;13.20;99.90;;;;;;5112560;28;20066;-87
2022/06/21 00:30:50;;;;;;;9.15;3.30;;;13.10;99.90;;;;;;5106923;28;20050;-87
2022/06/21 00:33:22;;;;;;;5.25;2.83;;;13.10;99.90;;;;;;5112068;28;20050;-87
2022/06/21 00:35:49;;;;;;;8.63;3.70;;;13.10;99.90;;;;;;5090627;28;20036;-87
2022/06/21 00:38:20;;;;;;;8.07;3.45;;;13.00;99.90;;;;;;5090246;28;20504;-87
2022/06/21 00:40:45;;;;;;;6.53;3.45;;;13.00;99.90;;;;;;5086612;28;20073;-86
2022/06/21 00:43:27;;;;;;;10.90;3.85;;;13.00;99.90;;;;;;5104670;28;20036;-87
2022/06/21 00:45:53;;;;;;;8.63;3.38;;;12.90;99.90;;;;;;5091946;28;20039;-87
2022/06/21 00:48:25;;;;;;;7.18;3.45;;;12.90;99.90;;;;;;5060403;28;20383;-87
2022/06/21 00:50:57;;;;;;;8.55;3.83;;;12.80;99.90;;;;;;5107127;28;20067;-87
2022/06/21 00:53:29;;;;;;;9.48;3.90;;;12.80;99.90;;;;;;5088664;28;20043;-87
2022/06/21 00:56:03;;;;;;;8.20;4.15;;;12.70;99.90;;;;;;5105849;28;20051;-87
2022/06/21 00:58:31;;;;;;;7.30;3.67;;;12.70;99.90;;;;;;5106647;28;20047;-86
2022/06/21 01:01:03;;;;;;;8.20;4.07;;;12.70;99.90;;;;;;5109953;28;20290;-87
2022/06/21 01:03:42;;;;;;;5.63;3.08;;;12.70;99.90;;;;;;5106827;28;20046;-87
2022/06/21 01:06:12;;;;;;;8.40;3.88;;;12.70;99.90;;;;;;5111176;28;20035;-87
2022/06/21 01:08:45;;;;;;;11.68;3.80;;;12.60;99.90;;;;;;5107469;28;20038;-87
2022/06/21 01:11:16;;;;;;;7.35;3.45;;;12.60;99.90;;;;;;5089305;28;20035;-87
2022/06/21 01:13:46;;;;;;;5.65;3.20;;;12.60;99.90;;;;;;5086652;28;20441;-87
2022/06/21 01:16:13;;;;;;;6.88;3.42;;;12.60;99.90;;;;;;5093184;28;20130;-87
2022/06/21 01:18:41;;;;;;;10.75;3.60;;;12.60;99.90;;;;;;5108952;28;20040;-87
2022/06/21 01:21:09;;;;;;;5.55;3.65;;;12.60;99.90;;;;;;5109412;28;20050;-87
2022/06/21 01:24:01;;;;;;;8.93;4.20;;;12.50;99.90;;;;;;5112019;28;20044;-87
2022/06/21 01:26:46;;;;;;;7.57;3.60;;;12.50;99.90;;;;;;5113374;28;20043;-87
2022/06/21 01:29:15;;;;;;;7.15;3.70;;;12.40;99.90;;;;;;5088225;28;20155;-87
2022/06/21 01:31:42;;;;;;;6.38;3.42;;;12.30;99.90;;;;;;5095209;28;20043;-88
2022/06/21 01:34:20;;;;;;;9.73;3.63;;;12.30;99.90;;;;;;5104977;28;20047;-87
2022/06/21 01:36:52;;;;;;;6.72;3.83;;;12.30;99.90;;;;;;5112639;28;20082;-87
2022/06/21 01:39:25;;;;;;;5.35;3.50;;;12.30;99.90;;;;;;5095274;28;20563;-87
2022/06/21 01:42:24;;;;;;;7.80;4.03;;;12.20;99.90;;;;;;5110342;28;20040;-87
2022/06/21 01:44:52;;;;;;;5.55;3.25;;;12.10;99.90;;;;;;5078003;28;20058;-87
2022/06/21 01:47:24;;;;;;;5.97;3.20;;;12.00;99.90;;;;;;5109722;28;20040;-85
2022/06/21 01:49:55;;;;;;;6.00;3.45;;;11.90;99.90;;;;;;5113848;28;20039;-87
2022/06/21 01:52:25;;;;;;;7.03;3.47;;;11.80;99.90;;;;;;5108989;28;20039;-87
2022/06/21 01:54:56;;;;;;;6.90;3.70;;;11.80;99.90;;;;;;5105429;28;20047;-87
2022/06/21 01:57:23;;;;;;;7.22;3.40;;;11.70;99.90;;;;;;5114616;28;20392;-86
2022/06/21 01:59:51;;;;;;;5.25;3.30;;;11.60;99.90;;;;;;5112183;28;20115;-87
2022/06/21 02:02:22;;;;;;;5.95;3.30;;;11.60;99.90;;;;;;5092965;28;20039;-86
2022/06/21 02:05:09;;;;;;;4.90;3.42;;;11.60;99.90;;;;;;5104835;28;20044;-87
2022/06/21 02:07:38;;;;;;;;;;;11.60;99.90;;;;;;5095510;28;20039;-87
2022/06/21 02:10:10;;;;;;;8.30;3.75;;;11.50;99.90;;;;;;5109721;28;19995;-87
2022/06/21 02:12:46;;;;;;;5.95;3.35;;;11.50;99.90;;;;;;5104055;28;20035;-87
2022/06/21 02:15:26;;;;;;;7.55;3.70;;;11.50;99.90;;;;;;5110721;28;20048;-87
2022/06/21 02:17:53;;;;;;;6.20;3.60;;;11.50;99.90;;;;;;5113175;28;20052;-87
2022/06/21 02:20:33;;;;;;;5.78;3.22;;;11.50;99.90;;;;;;5083322;28;20050;-88
2022/06/21 02:22:59;;;;;;;8.27;3.80;;;11.50;99.90;;;;;;5089451;28;20074;-87
2022/06/21 02:25:26;;;;;;;5.30;3.40;;;11.50;99.90;;;;;;5095381;28;20033;-87
2022/06/21 02:28:07;;;;;;;6.68;3.70;;;11.40;99.90;;;;;;5113996;28;20122;-86
2022/06/21 02:30:36;;;;;;;6.40;3.35;;;11.40;99.90;;;;;;5115663;28;20067;-87
2022/06/21 02:33:05;;;;;;;7.22;3.72;;;11.30;99.90;;;;;;5081338;28;20064;-87
2022/06/21 02:35:42;;;;;;;5.93;3.38;;;11.20;99.90;;;;;;5105460;28;20092;-87
2022/06/21 02:38:19;;;;;;;6.18;3.63;;;11.20;99.90;;;;;;5106779;28;20036;-87
2022/06/21 02:40:51;;;;;;;5.30;3.20;;;11.20;99.90;;;;;;5086059;28;20514;-87
2022/06/21 02:43:24;;;;;;;6.57;3.95;;;11.20;99.90;;;;;;5092630;28;20051;-87
2022/06/21 02:46:08;;;;;;;6.07;3.45;;;11.20;99.90;;;;;;5093497;28;20360;-87
2022/06/21 02:48:52;;;;;;;4.85;3.13;;;11.20;99.90;;;;;;5102914;28;20036;-87
2022/06/21 02:51:25;;;;;;;6.22;3.10;;;11.20;99.90;;;;;;5092231;28;20103;-87
2022/06/21 02:54:23;;;;;;;6.72;3.10;;;11.10;99.90;;;;;;5113972;28;20499;-87
2022/06/21 02:56:54;;;;;;;7.05;3.42;;;11.10;99.90;;;;;;5107782;28;20046;-87
2022/06/21 02:59:19;;;;;;;6.18;3.40;;;11.10;99.90;;;;;;5115653;28;20122;-87
2022/06/21 03:01:50;;;;;;;8.00;3.78;;;11.00;99.90;;;;;;5079919;28;20529;-86
2022/06/21 03:04:25;;;;;;;5.55;3.40;;;11.00;99.90;;;;;;5101465;28;20040;-88
2022/06/21 03:06:51;;;;;;;7.18;4.18;;;11.00;99.90;;;;;;5095142;28;20047;-87
2022/06/21 03:09:21;;;;;;;6.53;3.55;;;11.00;99.90;;;;;;5098050;28;20039;-87
2022/06/21 03:11:51;;;;;;;7.60;4.10;;;11.00;99.90;;;;;;5095116;28;20396;-87
2022/06/21 03:14:22;;;;;;;5.68;3.60;;;11.00;99.90;;;;;;5108237;28;20108;-87
2022/06/21 03:16:48;;;;;;;7.22;3.47;;;10.90;99.90;;;;;;5110506;28;20039;-87
2022/06/21 03:19:29;;;;;;;6.28;3.63;;;10.90;99.90;;;;;;5053759;28;20341;-87
2022/06/21 03:21:55;;;;;;;3.65;3.10;;;10.90;99.90;;;;;;5095651;28;20039;-87
2022/06/21 03:24:24;;;;;;;6.88;3.65;;;10.80;99.90;;;;;;5093601;28;20115;-86
2022/06/21 03:27:03;;;;;;;5.03;3.40;;;10.80;99.90;;;;;;5105248;28;20081;-86
2022/06/21 03:29:30;;;;;;;4.72;3.80;;;10.80;99.90;;;;;;5117927;27;20404;-87
2022/06/21 03:31:59;;;;;;;5.10;3.55;;;10.70;99.90;;;;;;5099514;27;20092;-87
2022/06/21 03:34:26;;;;;;;7.05;3.42;;;10.60;99.90;;;;;;5117007;27;20560;-87
2022/06/21 03:36:52;;;;;;;3.95;3.35;;;10.60;99.90;;;;;;5112571;27;20043;-86
2022/06/21 03:41:42;;;;;;;5.05;3.50;;;10.60;99.90;;;;;;5117963;27;20043;-87
2022/06/21 03:42:12;;;;;;;4.78;3.40;;;11.20;99.90;;;;;;5115637;27;20047;-87
2022/06/21 03:44:43;;;;;;;6.30;4.07;;;10.50;99.90;;;;;;5106216;27;20035;-82
2022/06/21 03:47:35;;;;;;;6.75;3.80;;;10.50;99.90;;;;;;5115572;27;20031;-87
2022/06/21 03:50:07;;;;;;;5.55;3.83;;;10.40;99.90;;;;;;5118964;27;20085;-87
2022/06/21 03:52:42;;;;;;;8.57;4.00;;;10.40;99.90;;;;;;5116408;27;20039;-86
2022/06/21 03:55:25;;;;;;;7.60;4.38;;;10.30;99.90;;;;;;5101380;27;20045;-86
2022/06/21 03:58:22;;;;;;;7.82;4.65;;;10.30;99.90;;;;;;5112127;28;20046;-87
2022/06/21 04:01:09;;;;;;;7.25;4.45;;;10.30;99.90;;;;;;5112852;27;20039;-86
2022/06/21 04:03:44;;;;;;;6.70;4.35;;;10.20;99.90;;;;;;5122528;27;20039;-87
2022/06/21 04:06:44;;;;;;;8.48;4.03;;;10.30;99.90;;;;;;5122487;27;20051;-85
2022/06/21 04:09:46;;;;;;;7.82;4.68;;;10.30;99.90;;;;;;5127329;27;20068;-87
2022/06/21 04:12:23;;;;;;;5.20;4.57;;;10.30;99.90;;;;;;5079165;28;20107;-86
2022/06/21 04:14:55;;;;;;;8.30;4.88;;;10.40;99.90;;;;;;5102922;28;20587;-86
2022/06/21 04:17:33;;;;;;;6.15;4.93;;;10.40;99.90;;;;;;5109770;27;20043;-86
2022/06/21 04:20:18;;;;;;;7.18;4.72;;;10.50;99.90;;;;;;5106873;28;20035;-86
2022/06/21 04:22:51;;;;;;;5.47;4.68;;;10.50;99.90;;;;;;5106396;27;20395;-86
2022/06/21 04:25:26;;;;;;;8.55;4.35;;;10.50;99.90;;;;;;5110516;28;20688;-86
2022/06/21 04:28:06;;;;;;;9.82;4.95;;;10.60;99.90;;;;;;5110788;27;20134;-86
2022/06/21 04:30:41;;;;;;;8.20;4.70;;;10.60;99.90;;;;;;5108697;27;20093;-87
2022/06/21 04:33:14;;;;;;;7.05;4.93;;;10.60;99.90;;;;;;5106093;27;20083;-87
2022/06/21 04:36:05;;;;;;;10.60;5.20;;;10.60;99.90;;;;;;5094978;27;20433;-86
2022/06/21 04:38:36;;;;;;;12.60;4.95;;;10.60;99.90;;;;;;5119214;27;20433;-86
2022/06/21 04:41:09;;;;;;;7.32;4.57;;;10.70;99.90;;;;;;5110179;27;20543;-86
2022/06/21 04:43:52;;;;;;;8.93;4.82;;;10.80;99.90;;;;;;5118310;27;20104;-86
2022/06/21 04:46:23;;;;;;;7.65;4.80;;;10.90;99.90;;;;;;5108174;27;20043;-86
2022/06/21 04:49:19;;;;;;;8.98;4.97;;;11.10;99.90;;;;;;5114651;27;20079;-86
2022/06/21 04:51:54;;;;;;;5.93;4.60;;;11.20;99.90;;;;;;5116358;27;20556;-86
2022/06/21 04:54:26;;;;;;;8.68;4.90;;;11.30;99.90;;;;;;5100592;27;20050;-83
2022/06/21 04:56:55;;;;;;;7.53;4.85;;;11.30;99.90;;;;;;5098962;27;20043;-87
2022/06/21 04:59:29;;;;;;;11.23;5.18;;;11.40;99.90;;;;;;5119157;28;20460;-86
2022/06/21 05:01:55;;;;;;;11.52;5.22;;;11.40;99.90;;;;;;5106863;28;20050;-86
2022/06/21 05:04:32;;;;;;;9.32;5.28;;;11.40;99.90;;;;;;5093618;28;20039;-87
2022/06/21 05:07:01;;;;;;;7.43;5.05;;;11.50;99.90;;;;;;5112583;27;20075;-86
2022/06/21 05:09:30;;;;;;;9.65;5.13;;;11.50;99.90;;;;;;5112346;27;20567;-87
2022/06/21 05:12:10;;;;;;;7.95;5.50;;;11.50;99.90;;;;;;5106065;28;20039;-85
2022/06/21 05:14:43;;;;;;;6.97;5.05;;;11.60;99.90;;;;;;5096430;28;20039;-87
2022/06/21 05:17:13;;;;;;;11.00;4.70;;;11.60;99.90;;;;;;5113448;28;20046;-87
2022/06/21 05:19:46;;;;;;;8.70;5.47;;;11.70;99.90;;;;;;5099104;28;20050;-87
2022/06/21 05:22:42;;;;;;;10.02;5.20;;;11.80;99.90;;;;;;5091529;28;20040;-86
2022/06/21 05:25:22;;;;;;;7.50;5.03;;;11.90;99.90;;;;;;5082727;28;20062;-86
2022/06/21 05:28:09;;;;;;;8.65;5.15;;;11.90;99.90;;;;;;5095108;28;20398;-86
2022/06/21 05:30:48;;;;;;;8.00;4.93;;;11.90;99.90;;;;;;5111170;28;20058;-87
2022/06/21 05:33:37;;;;;;;7.32;5.22;;;12.00;99.90;;;;;;5092982;28;20035;-82
2022/06/21 05:36:07;;;;;;;10.43;5.45;;;12.00;99.90;;;;;;5094967;28;20078;-88
2022/06/21 05:38:35;;;;;;;8.88;5.68;;;12.10;99.90;;;;;;5096081;28;20039;-88
2022/06/21 05:41:29;;;;;;;9.60;5.43;;;12.10;99.90;;;;;;5110226;28;20095;-87
2022/06/21 05:44:00;;;;;;;10.10;5.53;;;12.20;99.90;;;;;;5100396;28;20043;-87
2022/06/21 05:46:29;;;;;;;11.88;5.30;;;12.30;99.90;;;;;;5096044;28;20058;-85
2022/06/21 05:48:56;;;;;;;8.93;5.63;;;12.40;99.90;;;;;;5106274;28;20634;-86
2022/06/21 05:51:28;;;;;;;10.80;6.20;;;12.50;99.90;;;;;;5095957;28;20039;-86
2022/06/21 05:53:59;;;;;;;12.02;6.55;;;12.60;99.90;;;;;;5108209;28;20491;-87
2022/06/21 05:56:26;;;;;;;7.63;5.63;;;12.70;99.90;;;;;;5115653;28;20039;-87
2022/06/21 05:59:14;;;;;;;10.63;5.38;;;12.70;99.90;;;;;;5092273;28;20097;-87
2022/06/21 06:01:59;;;;;;;8.57;5.18;;;12.80;99.90;;;;;;5113021;28;20395;-87
2022/06/21 06:04:33;;;;;;;8.07;5.60;;;12.90;99.90;;;;;;5109587;28;20043;-86
2022/06/21 06:07:01;;;;;;;9.27;5.47;;;13.00;99.90;;;;;;5110316;28;20068;-86
2022/06/21 06:09:39;;;;;;;10.77;5.70;;;13.10;99.90;;;;;;5111522;28;20036;-85
2022/06/21 06:12:14;;;;;;;15.68;5.40;;;13.20;99.90;;;;;;5117629;28;20092;-84
2022/06/21 06:14:45;;;;;;;9.98;4.43;;;13.30;99.90;;;;;;5096634;28;20035;-87
2022/06/21 06:17:35;;;;;;;7.25;4.45;;;13.40;99.90;;;;;;5109881;28;20429;-84
2022/06/21 06:20:05;;;;;;;8.68;4.07;;;13.60;99.90;;;;;;5108561;28;20491;-86
2022/06/21 06:22:45;;;;;;;11.80;4.53;;;13.70;99.90;;;;;;5115048;27;20098;-85
2022/06/21 06:25:20;;;;;;;7.30;3.90;;;13.90;99.90;;;;;;5086817;27;20043;-85
2022/06/21 06:27:50;;;;;;;12.23;4.18;;;14.00;99.90;;;;;;5118255;27;20082;-88
2022/06/21 06:30:24;;;;;;;7.10;3.85;;;14.20;99.90;;;;;;5094526;27;20028;-86
2022/06/21 06:33:14;;;;;;;6.72;3.40;;;14.40;99.90;;;;;;5109703;27;20061;-87
2022/06/21 06:35:41;;;;;;;6.00;2.83;;;14.60;99.90;;;;;;5096878;27;20035;-86
2022/06/21 06:38:12;;;;;;;4.55;2.47;;;14.80;99.90;;;;;;5115253;27;20471;-88
2022/06/21 06:40:45;;;;;;;5.65;2.35;;;15.00;99.90;;;;;;5112462;27;20046;-87
2022/06/21 06:43:26;;;;;;;8.70;2.85;;;15.20;99.90;;;;;;5117787;27;20063;-87
2022/06/21 06:45:56;;;;;;;6.85;2.58;;;15.40;99.90;;;;;;5110043;27;20057;-88
2022/06/21 06:48:30;;;;;;;5.45;1.90;;;15.50;99.90;;;;;;5095311;28;20036;-86
2022/06/21 06:51:15;;;;;;;11.65;2.00;;;15.40;99.90;;;;;;5092504;27;20096;-87
2022/06/21 06:53:47;;;;;;;7.40;2.70;;;15.50;99.90;;;;;;5102487;27;20069;-88
2022/06/21 06:56:21;;;;;;;7.65;2.85;;;15.50;99.90;;;;;;5119087;27;20035;-87
2022/06/21 06:58:58;;;;;;;9.25;3.00;;;15.50;99.90;;;;;;5116524;27;20047;-87
2022/06/21 07:01:47;;;;;;;7.15;2.58;;;15.60;99.90;;;;;;5111497;27;20039;-87
2022/06/21 07:04:16;;;;;;;7.70;2.90;;;15.70;99.90;;;;;;5133367;27;20126;-88
2022/06/21 07:06:55;;;;;;;10.23;2.95;;;15.70;99.90;;;;;;5099064;27;20038;-88
2022/06/21 07:09:35;;;;;;;8.70;2.50;;;15.70;99.90;;;;;;5120396;27;20134;-88
2022/06/21 07:12:24;;;;;;;6.18;2.47;;;15.70;99.90;;;;;;5112057;27;20082;-87
2022/06/21 07:14:52;;;;;;;7.30;2.28;;;15.70;99.90;;;;;;5117611;27;20097;-87
2022/06/21 07:17:40;;;;;;;7.38;2.05;;;15.90;99.90;;;;;;5111857;27;20053;-88
2022/06/21 07:20:15;;;;;;;6.45;2.63;;;16.20;99.90;;;;;;5097355;27;20503;-86
2022/06/21 07:22:42;;;;;;;8.82;2.95;;;16.50;99.90;;;;;;5082665;27;20391;-86
2022/06/21 07:25:19;;;;;;;6.65;3.03;;;16.70;99.90;;;;;;5092602;27;20059;-86
2022/06/21 07:27:58;;;;;;;6.72;2.50;;;16.90;99.90;;;;;;5098527;27;20031;-86
2022/06/21 07:30:32;;;;;;;8.00;2.60;;;17.10;99.90;;;;;;5118383;27;20042;-86
2022/06/21 07:33:08;;;;;;;8.52;2.38;;;17.40;99.90;;;;;;5106601;28;20042;-86
2022/06/21 07:35:38;;;;;;;10.23;3.28;;;17.60;99.90;;;;;;5090995;27;20038;-86
2022/06/21 07:38:21;;;;;;;5.70;2.10;;;17.70;99.90;;;;;;5116634;27;20035;-86
2022/06/21 07:41:07;;;;;;;5.43;2.00;;;18.10;99.90;;;;;;5100294;27;20084;-86
2022/06/21 07:43:40;;;;;;;4.72;2.13;;;18.40;99.90;;;;;;5115387;27;20135;-86
2022/06/21 07:46:08;;;;;;;7.13;2.30;;;18.60;99.90;;;;;;5117862;27;20062;-85
2022/06/21 07:48:45;;;;;;;3.53;2.08;;;18.80;99.90;;;;;;5114170;27;20530;-85
2022/06/21 07:51:17;;;;;;;7.93;2.33;;;19.10;99.90;;;;;;5095236;28;20039;-86
2022/06/21 07:53:52;;;;;;;7.13;2.30;;;19.50;99.90;;;;;;5098703;27;20040;-86
2022/06/21 07:56:36;;;;;;;6.80;2.20;;;19.80;99.90;;;;;;5099865;27;20071;-86
2022/06/21 07:59:20;;;;;;;4.97;1.75;;;19.90;99.90;;;;;;5113657;27;20046;-85
2022/06/21 08:08:03;;;;;;;5.20;2.00;;;20.40;99.90;;;;;;5110092;27;20482;-86
2022/06/21 08:10:57;;;;;;;6.38;2.00;;;20.30;99.90;;;;;;5091896;27;20068;-86
2022/06/21 08:13:23;;;;;;;5.55;1.77;;;20.00;99.90;;;;;;5098097;27;20551;-86
2022/06/21 08:15:54;;;;;;;6.25;1.70;;;19.60;99.90;;;;;;5098424;27;20035;-86
2022/06/21 08:18:41;;;;;;;5.68;1.80;;;19.30;99.90;;;;;;5112977;27;20118;-86
2022/06/21 08:21:17;;;;;;;3.25;1.30;;;19.30;99.90;;;;;;5099313;27;20039;-86
2022/06/21 08:23:46;;;;;;;;;;;19.40;99.90;;;;;;5116453;27;20034;-86
2022/06/21 08:26:31;;;;;;;8.45;2.08;;;19.50;99.90;;;;;;5092168;27;19921;-86
2022/06/21 08:29:08;;;;;;;4.45;1.58;;;19.70;99.90;;;;;;5100562;27;20047;-86
2022/06/21 08:31:39;;;;;;;5.35;1.67;;;19.80;99.90;;;;;;5107435;27;20110;-85
2022/06/21 08:34:23;;;;;;;3.00;1.25;;;20.10;99.90;;;;;;5117165;27;20043;-85
2022/06/21 08:37:17;;;;;;;4.47;1.23;;;20.40;99.50;;;;;;5085550;28;20039;-86
2022/06/21 08:40:08;;;;;;;4.75;1.40;;;20.50;99.00;;;;;;5096075;27;20122;-86
2022/06/21 08:43:31;;;;;;;3.50;1.27;;;20.60;99.10;;;;;;5112311;27;20082;-83
2022/06/21 08:46:11;;;;;;;3.92;1.50;;;21.00;98.60;;;;;;5033900;28;20078;-86
2022/06/21 08:49:07;;;;;;;6.18;1.58;;;21.30;97.80;;;;;;5016588;28;20056;-86
2022/06/21 08:51:46;;;;;;;3.73;1.20;;;21.50;96.60;;;;;;5104150;27;20051;-86
2022/06/21 08:54:35;;;;;;;4.00;1.10;;;21.60;95.70;;;;;;5116517;28;20062;-86
2022/06/21 08:57:23;;;;;;;3.38;1.17;;;21.80;95.30;;;;;;5117030;27;20050;-86
2022/06/21 09:00:11;;;;;;;5.82;1.92;;;22.00;95.20;;;;;;5111694;27;20074;-86
2022/06/21 09:03:00;;;;;;;6.50;1.70;;;22.00;95.10;;;;;;5105317;28;20039;-86
2022/06/21 09:05:25;;;;;;;7.55;1.15;;;21.90;94.80;;;;;;5087687;28;20115;-85
2022/06/21 09:08:04;;;;;;;4.50;1.55;;;21.90;94.90;;;;;;5102879;28;20500;-84
2022/06/21 09:10:48;;;;;;;5.57;1.25;;;22.00;93.50;;;;;;5110081;27;20076;-84
2022/06/21 09:13:32;;;;;;;3.55;1.20;;;22.00;94.20;;;;;;5113835;28;20035;-84
2022/06/21 09:16:01;;;;;;;4.97;1.40;;;22.10;93.50;;;;;;5106810;28;20032;-84
2022/06/21 09:18:55;;;;;;;3.45;1.17;;;22.20;93.50;;;;;;5107806;28;20039;-85
2022/06/21 09:21:36;;;;;;;3.33;1.20;;;22.20;93.50;;;;;;5091295;28;20092;-85
2022/06/21 09:24:17;;;;;;;5.43;1.50;;;22.30;93.10;;;;;;5117003;28;20050;-83
2022/06/21 09:26:58;;;;;;;7.15;1.65;;;22.30;92.70;;;;;;5122524;28;20432;-84
2022/06/21 09:29:33;;;;;;;3.20;1.38;;;22.30;92.80;;;;;;5120058;28;20116;-84
2022/06/21 09:31:59;;;;;;;3.80;1.73;;;22.40;92.30;;;;;;5101129;28;20377;-85
2022/06/21 09:35:05;;;;;;;5.00;1.48;;;22.30;92.60;;;;;;5110806;28;20065;-84
2022/06/21 09:38:02;;;;;;;4.68;1.48;;;22.40;92.80;;;;;;5135772;28;20035;-83
2022/06/21 09:40:35;;;;;;;4.75;1.67;;;22.50;92.60;;;;;;5125919;27;20055;-84
2022/06/21 09:43:09;;;;;;;3.83;1.40;;;22.50;91.90;;;;;;5113712;28;20484;-85
2022/06/21 09:45:47;;;;;;;4.50;1.85;;;22.40;91.60;;;;;;5118643;28;20036;-85
2022/06/21 09:48:39;;;;;;;4.53;1.60;;;22.40;92.00;;;;;;5096756;28;20031;-84
2022/06/21 09:51:20;;;;;;;3.42;1.30;;;22.30;91.50;;;;;;5099637;28;20044;-84
2022/06/21 09:54:01;;;;;;;3.83;1.30;;;22.30;91.40;;;;;;5107249;28;20510;-85
2022/06/21 09:57:04;;;;;;;4.65;1.10;;;22.30;91.00;;;;;;5110774;28;20047;-84
2022/06/21 09:59:54;;;;;;;3.72;1.10;;;22.30;87.70;;;;;;5036803;28;20487;-86
2022/06/21 10:03:02;;;;;;;3.20;1.58;;;22.30;86.70;;;;;;5088313;27;20139;-85
2022/06/21 10:05:50;;;;;;;4.95;1.70;;;22.30;90.90;;;;;;5109829;27;20066;-85
2022/06/21 10:08:26;;;;;;;3.25;1.30;;;22.20;91.50;;;;;;5096918;28;20035;-85
2022/06/21 10:11:13;;;;;;;4.38;2.60;;;22.10;91.70;;;;;;5098646;27;20035;-85
2022/06/21 10:14:01;;;;;;;4.40;1.77;;;22.10;90.80;;;;;;5096842;27;20036;-85
2022/06/21 10:16:56;;;;;;;3.83;1.67;;;22.00;91.00;;;;;;5137850;27;20043;-85
2022/06/21 10:19:32;;;;;;;5.18;1.48;;;21.80;91.90;;;;;;5032103;28;20056;-84
2022/06/21 10:22:32;;;;;;;4.25;1.10;;;21.70;90.70;;;;;;5122906;27;20107;-84
2022/06/21 10:25:16;;;;;;;3.83;1.50;;;21.70;89.80;;;;;;5113881;27;20039;-85
2022/06/21 10:27:54;;;;;;;6.03;1.75;;;21.70;90.90;;;;;;5099002;27;20039;-85
2022/06/21 10:30:39;;;;;;;4.05;1.60;;;21.80;90.60;;;;;;5097115;27;20043;-86
2022/06/21 10:33:35;;;;;;;5.97;1.73;;;21.80;90.80;;;;;;5109829;27;20067;-84
2022/06/21 10:36:04;;;;;;;3.75;1.42;;;21.60;90.60;;;;;;5091186;27;20035;-84
2022/06/21 10:38:57;;;;;;;3.05;1.50;;;21.40;90.90;;;;;;5117191;27;20119;-83
2022/06/21 10:41:39;;;;;;;4.55;1.55;;;21.50;90.60;;;;;;5112975;27;20039;-85
2022/06/21 10:44:23;;;;;;;5.32;1.40;;;21.50;91.10;;;;;;5117446;27;20118;-84
2022/06/21 10:46:53;;;;;;;4.10;1.60;;;21.60;91.60;;;;;;5093114;27;20126;-84
2022/06/21 10:49:28;;;;;;;9.32;1.50;;;21.80;91.80;;;;;;5101218;27;20043;-84
2022/06/21 10:51:53;;;;;;;6.53;2.13;;;22.00;91.50;;;;;;5114870;28;20061;-83
2022/06/21 10:54:40;;;;;;;6.25;1.80;;;22.10;91.00;;;;;;5095010;27;20042;-83
2022/06/21 10:57:30;;;;;;;5.22;1.45;;;22.20;90.40;;;;;;5115519;27;20372;-83
2022/06/21 11:03:35;;;;;;;2.40;1.77;;;22.40;90.30;;;;;;5096742;27;20039;-83
2022/06/21 11:06:25;;;;;;;7.50;1.98;;;22.60;87.90;;;;;;5093821;27;20040;-86
2022/06/21 11:09:03;;;;;;;8.50;2.15;;;22.60;88.20;;;;;;5095012;28;20404;-83
2022/06/21 11:11:47;;;;;;;13.15;2.63;;;22.50;90.10;;;;;;5114765;27;20122;-83
2022/06/21 11:14:41;;;;;;;20.48;3.85;;;22.40;88.80;;;;;;5096343;27;20114;-83
2022/06/21 11:17:32;;;;;;;4.63;1.77;;;22.40;89.00;;;;;;5115980;27;20111;-83
2022/06/21 11:20:41;;;;;;;9.13;1.95;;;22.40;89.70;;;;;;5112614;27;20050;-84
2022/06/21 11:23:15;;;;;;;4.55;1.63;;;22.50;88.30;;;;;;5112733;27;20382;-83
2022/06/21 11:25:53;;;;;;;4.38;1.60;;;22.50;89.60;;;;;;5116996;27;20043;-83
2022/06/21 11:28:41;;;;;;;4.05;1.88;;;22.60;89.70;;;;;;5114980;27;20066;-83
2022/06/21 11:31:20;;;;;;;4.40;1.52;;;22.50;88.30;;;;;;5113118;27;20487;-83
2022/06/21 11:33:50;;;;;;;3.20;1.50;;;22.60;89.30;;;;;;5111768;27;20042;-83
2022/06/21 11:36:40;;;;;;;4.07;1.70;;;22.70;89.80;;;;;;5118281;27;20080;-83
2022/06/21 11:39:44;;;;;;;5.85;1.80;;;22.80;88.40;;;;;;5090535;28;20036;-82
2022/06/21 11:42:16;;;;;;;3.97;2.10;;;22.90;86.50;;;;;;5117562;27;20039;-83
2022/06/21 11:45:00;;;;;;;3.53;1.80;;;22.90;86.80;;;;;;5118234;27;20039;-83
2022/06/21 11:47:47;;;;;;;9.68;1.90;;;23.00;88.20;;;;;;5108701;27;20090;-82
2022/06/21 11:50:27;;;;;;;5.15;2.00;;;23.10;88.20;;;;;;5098278;27;20041;-82
2022/06/21 11:53:27;;;;;;;3.78;1.50;;;23.20;87.80;;;;;;5109653;28;20038;-82
2022/06/21 11:56:03;;;;;;;4.53;1.58;;;23.20;87.10;;;;;;5112066;28;20035;-81
2022/06/21 11:58:47;;;;;;;5.72;1.70;;;23.20;86.50;;;;;;5098443;27;20034;-82
2022/06/21 12:01:32;;;;;;;3.60;1.55;;;23.10;86.20;;;;;;5095083;27;20035;-81
2022/06/21 12:04:23;;;;;;;5.70;1.63;;;22.90;85.80;;;;;;5105634;27;20551;-82
2022/06/21 12:07:00;;;;;;;4.18;1.90;;;22.90;87.00;;;;;;5104209;27;20467;-82
2022/06/21 12:09:32;;;;;;;4.22;1.83;;;22.90;85.80;;;;;;5108841;27;20059;-82
2022/06/21 12:12:24;;;;;;;4.45;1.80;;;22.90;85.00;;;;;;5118514;27;20034;-83
2022/06/21 12:15:11;;;;;;;4.07;1.80;;;22.80;82.60;;;;;;5109999;27;20429;-83
2022/06/21 12:17:45;;;;;;;3.97;1.58;;;22.80;84.80;;;;;;5098538;27;20297;-82
2022/06/21 12:20:24;;;;;;;5.32;1.85;;;22.90;82.40;;;;;;5108023;27;20075;-83
2022/06/21 12:23:04;;;;;;;4.53;1.70;;;23.00;83.20;;;;;;5113806;27;20039;-82
2022/06/21 12:25:30;;;;;;;5.88;2.15;;;23.10;82.90;;;;;;5099183;27;20043;-82
2022/06/21 12:27:59;;;;;;;4.68;1.65;;;23.20;82.10;;;;;;5110778;27;20031;-82
2022/06/21 12:30:28;;;;;;;3.55;1.60;;;23.30;82.00;;;;;;5111174;27;20086;-82
2022/06/21 12:33:00;;;;;;;5.22;1.63;;;23.20;81.50;;;;;;5110528;27;20421;-82
2022/06/21 12:35:51;;;;;;;3.17;1.58;;;23.50;81.20;;;;;;5097439;27;20035;-83
2022/06/21 12:38:29;;;;;;;5.40;1.25;;;23.80;80.50;;;;;;5113401;27;20039;-83
2022/06/21 12:41:18;;;;;;;3.00;1.50;;;24.20;78.20;;;;;;5106013;27;20043;-82
2022/06/21 12:44:20;;;;;;;4.18;1.42;;;24.60;78.60;;;;;;5106811;27;20076;-83
2022/06/21 12:47:25;;;;;;;3.55;1.48;;;25.00;79.00;;;;;;5098633;28;20059;-83
2022/06/21 12:50:15;;;;;;;3.65;1.55;;;25.40;78.20;;;;;;5107718;27;20052;-83
2022/06/21 12:52:47;;;;;;;12.32;1.90;;;25.60;76.30;;;;;;5091311;27;20053;-83
2022/06/21 12:55:28;;;;;;;6.18;2.00;;;25.70;77.40;;;;;;5093314;28;20044;-84
2022/06/21 12:58:16;;;;;;;4.80;1.75;;;25.90;77.50;;;;;;5115385;27;20031;-84
2022/06/21 13:00:52;;;;;;;4.60;1.40;;;25.70;78.60;;;;;;5104231;28;20105;-83
2022/06/21 13:03:53;;;;;;;5.15;1.58;;;25.50;76.10;;;;;;5099941;27;20188;-83
2022/06/21 13:06:32;;;;;;;3.65;1.30;;;25.30;75.10;;;;;;5082727;27;20056;-84
2022/06/21 13:09:29;;;;;;;3.70;1.88;;;25.10;75.90;;;;;;5106637;27;20067;-83
2022/06/21 13:12:17;;;;;;;6.78;1.80;;;25.00;76.00;;;;;;5095264;28;20372;-84
2022/06/21 13:15:12;;;;;;;3.72;1.60;;;25.10;75.60;;;;;;5112590;28;20035;-84
2022/06/21 13:17:53;;;;;;;3.75;1.58;;;25.20;73.30;;;;;;5089523;28;20047;-83
2022/06/21 13:20:29;;;;;;;5.10;1.67;;;25.40;74.60;;;;;;5095041;28;20079;-83
2022/06/21 13:23:17;;;;;;;5.05;1.40;;;25.50;74.10;;;;;;5100676;28;20054;-83
2022/06/21 13:25:52;;;;;;;3.90;1.70;;;25.70;73.60;;;;;;5111972;28;20043;-83
2022/06/21 13:28:36;;;;;;;;;;;25.80;74.30;;;;;;5094906;28;20051;-83
2022/06/21 13:31:11;;;;;;;4.85;1.40;;;26.00;72.40;;;;;;5112860;27;20375;-84
2022/06/21 13:33:37;;;;;;;4.10;1.60;;;26.20;73.00;;;;;;5112681;27;20137;-83
2022/06/21 13:36:40;;;;;;;3.13;1.10;;;26.30;70.00;;;;;;5093492;27;20084;-83
2022/06/21 13:39:26;;;;;;;3.60;1.38;;;26.60;71.70;;;;;;5039618;28;20036;-84
2022/06/21 13:45:14;;;;;;;5.25;1.60;;;26.60;67.20;;;;;;5111838;28;20118;-85
2022/06/21 13:47:53;;;;;;;5.93;1.58;;;26.80;66.80;;;;;;5101945;27;20054;-85
2022/06/21 13:50:36;;;;;;;3.38;1.23;;;26.80;67.10;;;;;;5112651;27;20491;-85
2022/06/21 13:53:41;;;;;;;3.47;1.67;;;26.80;67.80;;;;;;5100996;27;20039;-85
2022/06/21 13:56:33;;;;;;;3.33;1.30;;;27.00;65.30;;;;;;5106412;27;20048;-84